Time;durP1;ratioP1;P1;durP2;ratioP2;P2;SDS_P1;SDS_P2;PMS_P1;PMS_P2;Temp;Humidity;BMP_temperature;BMP_pressure;BME280_temperature;BME280_humidity;BME280_pressure;Samples;Min_cycle;Max_cycle;Signal;HPM_P1;HPM_P2
2022/08/14 00:02:25;;;;;;;13.90;12.40;;;;;;;18.02;100.00;97537.85;107039;1281;24363;-83
2022/08/14 00:04:58;;;;;;;14.40;13.00;;;;;;;18.05;100.00;97539.84;106021;1281;22554;-85
2022/08/14 00:07:26;;;;;;;14.50;13.00;;;;;;;18.06;100.00;97539.08;105228;1282;22619;-84
2022/08/14 00:09:54;;;;;;;15.10;13.70;;;;;;;18.09;100.00;97535.73;105471;1281;23212;-84
2022/08/14 00:12:46;;;;;;;13.40;12.30;;;;;;;18.13;100.00;97533.09;105500;1281;22608;-83
2022/08/14 00:15:35;;;;;;;14.80;13.50;;;;;;;18.09;100.00;97530.05;105509;1281;24251;-88
2022/08/14 00:18:18;;;;;;;15.00;13.50;;;;;;;18.08;100.00;97524.09;105771;1281;22712;-85
2022/08/14 00:21:06;;;;;;;;;;;;;;;18.09;100.00;97520.86;106152;1281;23955;-84
2022/08/14 00:23:39;;;;;;;15.50;14.00;;;;;;;18.06;100.00;97518.21;105992;1281;22570;-84
2022/08/14 00:26:07;;;;;;;14.50;13.10;;;;;;;18.05;100.00;97512.03;106869;1281;22570;-82
2022/08/14 00:28:50;;;;;;;22.70;15.30;;;;;;;18.02;100.00;97509.40;105610;1281;22567;-83
2022/08/14 00:31:19;;;;;;;15.40;13.80;;;;;;;17.99;100.00;97507.30;105593;1280;22571;-84
2022/08/14 00:34:02;;;;;;;15.90;14.50;;;;;;;17.97;100.00;97504.14;105265;1282;23946;-84
2022/08/14 00:36:50;;;;;;;15.50;14.10;;;;;;;17.97;100.00;97498.56;105369;1283;22630;-85
2022/08/14 00:39:20;;;;;;;15.70;14.40;;;;;;;17.98;100.00;97497.56;105397;1281;22736;-84
2022/08/14 00:41:48;;;;;;;14.90;13.50;;;;;;;17.97;100.00;97493.88;105263;1281;22570;-83
2022/08/14 00:44:16;;;;;;;15.30;14.00;;;;;;;17.95;100.00;97490.56;105394;1281;25363;-83
2022/08/14 00:47:07;;;;;;;15.20;13.60;;;;;;;17.94;100.00;97486.34;105641;1281;25384;-84
2022/08/14 00:49:37;;;;;;;14.60;13.20;;;;;;;17.96;100.00;97486.30;105313;1281;24219;-84
2022/08/14 00:52:13;;;;;;;14.90;13.50;;;;;;;17.97;100.00;97487.02;105182;1281;22710;-84
2022/08/14 00:54:51;;;;;;;15.10;13.70;;;;;;;17.96;100.00;97487.30;105300;1281;25363;-83
2022/08/14 00:57:30;;;;;;;15.30;13.50;;;;;;;17.97;100.00;97487.40;105301;1282;22532;-84
2022/08/14 01:00:19;;;;;;;;;;;;;;;18.00;100.00;97488.04;105394;1281;22520;-83
2022/08/14 01:03:38;;;;;;;15.70;14.20;;;;;;;17.96;100.00;97488.10;105432;1281;24247;-84
2022/08/14 01:06:12;;;;;;;15.50;14.00;;;;;;;17.96;100.00;97481.31;105287;1282;22557;-84
2022/08/14 01:08:43;;;;;;;16.10;14.20;;;;;;;17.98;100.00;97476.69;105346;1281;22729;-84
2022/08/14 01:11:26;;;;;;;15.40;13.60;;;;;;;17.94;100.00;97478.63;105391;1281;26015;-83
2022/08/14 01:14:03;;;;;;;15.20;13.70;;;;;;;17.88;100.00;97477.73;105265;1282;24483;-83
2022/08/14 01:16:52;;;;;;;14.70;13.40;;;;;;;17.83;100.00;97475.98;105416;1281;25430;-83
2022/08/14 01:22:14;;;;;;;16.70;15.00;;;;;;;17.71;100.00;97474.27;105310;1281;25332;-84
2022/08/14 01:24:47;;;;;;;18.00;15.10;;;;;;;17.65;100.00;97475.56;105399;1281;22545;-84
2022/08/14 01:27:20;;;;;;;17.30;15.70;;;;;;;17.63;100.00;97473.02;105287;1281;24381;-85
2022/08/14 01:29:53;;;;;;;16.00;14.60;;;;;;;17.60;100.00;97476.30;105340;1281;22814;-84
2022/08/14 01:32:32;;;;;;;16.70;15.20;;;;;;;17.59;100.00;97476.75;105299;1281;25488;-83
2022/08/14 01:35:09;;;;;;;17.00;15.30;;;;;;;17.58;100.00;97471.52;105296;1281;24273;-84
2022/08/14 01:37:57;;;;;;;16.90;15.20;;;;;;;17.57;100.00;97469.31;105584;1281;25554;-85
2022/08/14 01:40:27;;;;;;;16.60;14.90;;;;;;;17.56;100.00;97466.22;105337;1281;25590;-84
2022/08/14 01:43:14;;;;;;;16.90;15.40;;;;;;;17.55;100.00;97469.20;105275;1281;25613;-83
2022/08/14 01:45:50;;;;;;;17.10;14.90;;;;;;;17.52;100.00;97461.33;105411;1281;25470;-84
2022/08/14 01:48:34;;;;;;;16.90;15.30;;;;;;;17.52;100.00;97464.35;105331;1281;25421;-84
2022/08/14 01:51:06;;;;;;;19.20;15.20;;;;;;;17.51;100.00;97454.85;105310;1281;25422;-84
2022/08/14 01:53:49;;;;;;;17.30;15.30;;;;;;;17.51;100.00;97452.75;105300;1281;25391;-85
2022/08/14 01:56:34;;;;;;;18.10;16.20;;;;;;;17.52;100.00;97455.89;105610;1281;25200;-85
2022/08/14 01:59:09;;;;;;;18.10;16.30;;;;;;;17.51;100.00;97456.25;105341;1281;22722;-84
2022/08/14 02:01:48;;;;;;;17.90;16.10;;;;;;;17.49;100.00;97456.59;105314;1281;25416;-83
2022/08/14 02:04:31;;;;;;;19.20;16.70;;;;;;;17.51;100.00;97453.21;105334;1282;22715;-83
2022/08/14 02:07:19;;;;;;;19.40;17.60;;;;;;;17.53;100.00;97457.00;105414;1281;25352;-83
2022/08/14 02:10:09;;;;;;;20.10;18.10;;;;;;;17.53;100.00;97459.97;105409;1281;25456;-85
2022/08/14 02:12:45;;;;;;;19.10;17.30;;;;;;;17.53;100.00;97453.11;105516;1281;24412;-84
2022/08/14 02:15:24;;;;;;;18.10;16.40;;;;;;;17.53;100.00;97453.66;105378;1281;25421;-84
2022/08/14 02:17:53;;;;;;;17.50;15.60;;;;;;;17.54;100.00;97454.06;105387;1281;23087;-85
2022/08/14 02:20:21;;;;;;;17.50;15.90;;;;;;;17.55;100.00;97450.66;105376;1281;25303;-83
2022/08/14 02:22:52;;;;;;;15.90;14.50;;;;;;;17.56;100.00;97448.80;105275;1281;22767;-83
2022/08/14 02:25:23;;;;;;;16.70;15.00;;;;;;;17.57;100.00;97449.92;105342;1281;22550;-83
2022/08/14 02:27:56;;;;;;;16.20;14.50;;;;;;;17.57;100.00;97452.27;105294;1281;24186;-83
2022/08/14 02:30:44;;;;;;;15.90;14.30;;;;;;;17.58;100.00;97451.41;105317;1281;22709;-83
2022/08/14 02:33:12;;;;;;;15.90;14.50;;;;;;;17.58;100.00;97449.63;105521;1281;22700;-83
2022/08/14 02:35:42;;;;;;;14.50;13.10;;;;;;;17.60;100.00;97452.00;105573;1281;24464;-85
2022/08/14 02:38:20;;;;;;;14.70;13.30;;;;;;;17.64;100.00;97451.95;105284;1281;22556;-85
2022/08/14 02:41:02;;;;;;;14.70;13.30;;;;;;;17.67;100.00;97449.91;105295;1281;25409;-86
2022/08/14 02:43:39;;;;;;;14.30;13.00;;;;;;;17.72;100.00;97453.74;105432;1281;24268;-87
2022/08/14 02:46:16;;;;;;;12.90;11.70;;;;;;;17.76;100.00;97451.58;105737;1281;22532;-83
2022/08/14 02:48:51;;;;;;;14.20;12.70;;;;;;;17.81;100.00;97448.27;105328;1281;25234;-82
2022/08/14 02:51:34;;;;;;;14.40;11.40;;;;;;;17.83;100.00;97448.80;105427;1281;25295;-83
2022/08/14 02:54:08;;;;;;;13.50;12.10;;;;;;;17.84;100.00;97445.40;105420;1281;22716;-85
2022/08/14 02:56:40;;;;;;;12.90;11.70;;;;;;;17.85;100.00;97447.36;105382;1281;25393;-82
2022/08/14 02:59:30;;;;;;;11.90;10.70;;;;;;;17.86;100.00;97445.76;105481;1281;24416;-82
2022/08/14 03:02:02;;;;;;;11.50;10.20;;;;;;;17.85;100.00;97443.39;105410;1281;25367;-83
2022/08/14 03:04:31;;;;;;;11.10;10.10;;;;;;;17.87;100.00;97442.81;105432;1281;22705;-83
2022/08/14 03:06:59;;;;;;;10.10;9.20;;;;;;;17.90;100.00;97446.84;105428;1281;24255;-83
2022/08/14 03:09:38;;;;;;;10.40;9.50;;;;;;;17.89;100.00;97445.36;105319;1281;25252;-85
2022/08/14 03:12:26;;;;;;;11.70;10.50;;;;;;;17.91;100.00;97449.44;105310;1283;22584;-84
2022/08/14 03:15:09;;;;;;;10.30;9.40;;;;;;;17.89;100.00;97442.63;105635;1281;22570;-84
2022/08/14 03:17:43;;;;;;;11.30;10.30;;;;;;;17.86;100.00;97438.59;105322;1281;24219;-83
2022/08/14 03:20:27;;;;;;;10.60;9.60;;;;;;;17.81;100.00;97436.70;105602;1281;25298;-83
2022/08/14 03:22:58;;;;;;;11.00;9.80;;;;;;;17.79;100.00;97443.03;105586;1281;24289;-84
2022/08/14 03:25:32;;;;;;;12.20;10.50;;;;;;;17.79;100.00;97438.59;105362;1281;24041;-84
2022/08/14 03:28:08;;;;;;;12.60;11.30;;;;;;;17.77;100.00;97439.95;105304;1281;25365;-87
2022/08/14 03:30:57;;;;;;;15.20;12.20;;;;;;;17.80;100.00;97440.02;105367;1281;22778;-87
2022/08/14 03:33:27;;;;;;;13.20;11.90;;;;;;;17.80;100.00;97434.80;105386;1281;22655;-84
2022/08/14 03:36:12;;;;;;;13.80;12.40;;;;;;;17.81;100.00;97432.26;105399;1281;26083;-87
2022/08/14 03:39:02;;;;;;;13.50;12.30;;;;;;;17.82;100.00;97430.09;105777;1281;25348;-85
2022/08/14 03:41:54;;;;;;;15.00;13.50;;;;;;;17.81;100.00;97425.86;105985;1281;25364;-86
2022/08/14 03:44:26;;;;;;;15.90;14.10;;;;;;;17.78;100.00;97431.79;105819;1281;25833;-85
2022/08/14 03:47:15;;;;;;;16.00;14.60;;;;;;;17.77;100.00;97432.61;105268;1282;22563;-85
2022/08/14 03:49:45;;;;;;;17.10;15.60;;;;;;;17.76;100.00;97430.86;105463;1281;23950;-85
2022/08/14 03:52:17;;;;;;;17.90;15.90;;;;;;;17.77;100.00;97435.02;105374;1281;24193;-84
2022/08/14 03:55:11;;;;;;;17.60;15.90;;;;;;;17.73;100.00;97433.14;105314;1281;22748;-85
2022/08/14 03:57:40;;;;;;;15.70;14.30;;;;;;;17.70;100.00;97438.23;105436;1281;25369;-83
2022/08/14 04:00:12;;;;;;;18.80;16.10;;;;;;;17.70;100.00;97435.50;105425;1281;25480;-83
2022/08/14 04:03:01;;;;;;;17.60;15.90;;;;;;;17.70;100.00;97438.67;105418;1281;22563;-83
2022/08/14 04:05:29;;;;;;;19.40;17.60;;;;;;;17.73;100.00;97438.98;105388;1281;23822;-83
2022/08/14 04:08:10;;;;;;;17.00;15.20;;;;;;;17.72;100.00;97439.90;105388;1281;24115;-83
2022/08/14 04:10:59;;;;;;;18.20;16.30;;;;;;;17.72;100.00;97442.08;105282;1281;26702;-82
2022/08/14 04:13:34;;;;;;;17.30;15.80;;;;;;;17.71;100.00;97440.81;105307;1281;22557;-83
2022/08/14 04:16:08;;;;;;;17.80;16.20;;;;;;;17.73;100.00;97441.00;105320;1281;22705;-82
2022/08/14 04:18:41;;;;;;;18.50;16.90;;;;;;;17.73;100.00;97440.31;105350;1281;23990;-83
2022/08/14 04:21:12;;;;;;;17.80;16.20;;;;;;;17.76;100.00;97443.40;105333;1281;22627;-83
2022/08/14 04:23:43;;;;;;;19.10;17.20;;;;;;;17.76;100.00;97440.13;105318;1281;24211;-83
2022/08/14 04:26:18;;;;;;;19.30;17.50;;;;;;;17.75;100.00;97436.84;105633;1281;23957;-83
2022/08/14 04:29:08;;;;;;;18.60;16.70;;;;;;;17.76;100.00;97436.39;105288;1281;24429;-83
2022/08/14 04:31:43;;;;;;;19.20;17.50;;;;;;;17.76;100.00;97438.73;105232;1281;24222;-82
2022/08/14 04:34:33;;;;;;;19.10;17.30;;;;;;;17.79;100.00;97435.86;105613;1281;25292;-82
2022/08/14 04:45:39;;;;;;;19.70;17.80;;;;;;;17.87;100.00;97435.11;105603;1281;25362;-84
2022/08/14 04:48:13;;;;;;;18.90;17.30;;;;;;;17.89;100.00;97433.06;105262;1281;22533;-84
2022/08/14 04:51:04;;;;;;;20.00;18.30;;;;;;;17.93;100.00;97429.38;105246;1282;25376;-84
2022/08/14 04:53:34;;;;;;;21.30;19.00;;;;;;;17.92;100.00;97428.67;105288;1282;25459;-84
2022/08/14 04:56:15;;;;;;;19.10;17.30;;;;;;;17.90;100.00;97430.17;105297;1281;24242;-83
2022/08/14 04:59:05;;;;;;;19.10;17.50;;;;;;;17.91;100.00;97432.84;105305;1282;25446;-83
2022/08/14 05:01:43;;;;;;;19.70;17.70;;;;;;;17.92;100.00;97429.98;105289;1281;24293;-84
2022/08/14 05:04:19;;;;;;;20.90;18.90;;;;;;;17.90;100.00;97429.55;105259;1281;22553;-84
2022/08/14 05:06:50;;;;;;;20.40;18.50;;;;;;;17.92;100.00;97430.60;105320;1281;23980;-83
2022/08/14 05:09:23;;;;;;;20.20;17.90;;;;;;;17.95;100.00;97429.89;105289;1282;25244;-84
2022/08/14 05:11:56;;;;;;;;;;;;;;;18.01;100.00;97425.27;105291;1281;22733;-84
2022/08/14 05:14:45;;;;;;;19.30;17.50;;;;;;;18.05;100.00;97422.45;105282;1281;25549;-84
2022/08/14 05:17:25;;;;;;;18.00;16.30;;;;;;;18.08;100.00;97422.91;105310;1281;22556;-83
2022/08/14 05:20:11;;;;;;;19.70;17.90;;;;;;;18.09;100.00;97421.45;105282;1281;24259;-83
2022/08/14 05:23:23;;;;;;;20.30;16.80;;;;;;;18.13;100.00;97416.95;105359;1281;22566;-84
2022/08/14 05:25:56;;;;;;;17.00;15.40;;;;;;;18.20;100.00;97415.03;105262;1282;22715;-82
2022/08/14 05:28:26;;;;;;;;;;;;;;;18.24;100.00;97412.06;105439;1281;22538;-83
2022/08/14 05:30:57;;;;;;;16.00;14.40;;;;;;;18.29;100.00;97409.45;105358;1281;25365;-83
2022/08/14 05:33:27;;;;;;;14.10;12.80;;;;;;;18.34;100.00;97407.29;105243;1282;24162;-83
2022/08/14 05:36:00;;;;;;;14.00;12.60;;;;;;;18.38;100.00;97402.92;105211;1282;25639;-84
2022/08/14 05:38:34;;;;;;;14.00;12.60;;;;;;;18.40;100.00;97402.63;105346;1281;22697;-84
2022/08/14 05:41:08;;;;;;;13.70;12.50;;;;;;;18.45;100.00;97402.57;105148;1283;22566;-85
2022/08/14 05:43:36;;;;;;;;;;;;;;;18.49;100.00;97399.39;105423;1281;22684;-87
2022/08/14 05:46:11;;;;;;;11.20;10.20;;;;;;;18.51;100.00;97398.01;105327;1281;22561;-83
2022/08/14 05:48:46;;;;;;;10.70;9.80;;;;;;;18.53;100.00;97400.60;105436;1281;22547;-83
2022/08/14 05:51:14;;;;;;;12.50;11.20;;;;;;;18.52;100.00;97403.86;105295;1281;22544;-84
2022/08/14 05:53:43;;;;;;;10.60;9.60;;;;;;;18.52;100.00;97405.58;105254;1281;24121;-83
2022/08/14 05:56:28;;;;;;;9.10;8.20;;;;;;;18.55;100.00;97410.48;105327;1281;25429;-83
2022/08/14 05:59:06;;;;;;;9.70;8.80;;;;;;;18.53;100.00;97412.45;105388;1281;22647;-83
2022/08/14 06:01:34;;;;;;;10.30;9.10;;;;;;;18.54;100.00;97412.48;105247;1282;22560;-83
2022/08/14 06:04:03;;;;;;;8.70;7.80;;;;;;;18.53;100.00;97414.95;105373;1281;22537;-83
2022/08/14 06:06:32;;;;;;;7.20;6.50;;;;;;;18.53;100.00;97413.94;105344;1281;24133;-83
2022/08/14 06:09:07;;;;;;;9.40;7.70;;;;;;;18.48;100.00;97412.52;105255;1282;25648;-85
2022/08/14 06:11:36;;;;;;;7.00;5.70;;;;;;;18.45;100.00;97414.42;105306;1281;25481;-83
2022/08/14 06:14:04;;;;;;;6.60;6.00;;;;;;;18.45;100.00;97411.85;105301;1281;23988;-82
2022/08/14 06:16:48;;;;;;;6.80;5.30;;;;;;;18.44;100.00;97411.36;105338;1281;22632;-83
2022/08/14 06:19:20;;;;;;;6.20;5.60;;;;;;;18.42;100.00;97411.63;105392;1281;25433;-84
2022/08/14 06:21:51;;;;;;;6.40;5.70;;;;;;;18.41;100.00;97411.29;105249;1282;26140;-83
2022/08/14 06:24:27;;;;;;;5.50;5.00;;;;;;;18.41;100.00;97409.89;105230;1281;25313;-83
2022/08/14 06:27:03;;;;;;;6.70;6.00;;;;;;;18.42;100.00;97412.02;105382;1281;22528;-83
2022/08/14 06:29:37;;;;;;;6.90;6.10;;;;;;;18.41;100.00;97414.58;105228;1283;22557;-82
2022/08/14 06:32:05;;;;;;;8.70;6.10;;;;;;;18.42;100.00;97408.89;105316;1281;25416;-82
2022/08/14 06:34:53;;;;;;;10.20;8.10;;;;;;;18.46;100.00;97410.30;105316;1281;22784;-83
2022/08/14 06:37:59;;;;;;;9.20;7.40;;;;;;;18.49;100.00;97409.04;105288;1281;25415;-83
2022/08/14 06:40:34;;;;;;;7.20;5.80;;;;;;;18.55;100.00;97407.11;105416;1281;25467;-82
2022/08/14 06:43:09;;;;;;;7.90;5.80;;;;;;;18.60;100.00;97403.46;105275;1282;22635;-81
2022/08/14 06:45:39;;;;;;;6.00;5.40;;;;;;;18.65;100.00;97403.30;105441;1281;22538;-82
2022/08/14 06:48:15;;;;;;;6.10;5.50;;;;;;;18.67;100.00;97402.94;105311;1282;24241;-82
2022/08/14 06:50:45;;;;;;;7.00;5.00;;;;;;;18.72;100.00;97406.45;105259;1282;22534;-82
2022/08/14 06:53:16;;;;;;;6.30;5.30;;;;;;;18.76;100.00;97404.62;105318;1281;24213;-82
2022/08/14 06:55:46;;;;;;;5.50;4.90;;;;;;;18.80;100.00;97402.02;105370;1281;24286;-82
2022/08/14 06:58:29;;;;;;;5.20;4.70;;;;;;;18.83;100.00;97403.02;105254;1281;25478;-82
2022/08/14 07:06:53;;;;;;;5.60;5.00;;;;;;;18.83;100.00;97399.50;105271;1282;22513;-81
2022/08/14 07:09:27;;;;;;;6.80;5.80;;;;;;;18.87;100.00;97398.41;105301;1281;25441;-82
2022/08/14 07:12:15;;;;;;;6.70;5.60;;;;;;;18.90;100.00;97398.27;105232;1284;25301;-83
2022/08/14 07:15:05;;;;;;;6.10;5.50;;;;;;;18.93;100.00;97396.64;105298;1281;22549;-83
2022/08/14 07:17:33;;;;;;;6.10;5.50;;;;;;;18.95;100.00;97397.84;105299;1281;22543;-82
2022/08/14 07:20:04;;;;;;;6.80;5.70;;;;;;;18.95;100.00;97401.04;105340;1281;25429;-82
2022/08/14 07:22:34;;;;;;;6.70;6.00;;;;;;;18.99;100.00;97399.70;105349;1281;25403;-82
2022/08/14 07:25:22;;;;;;;7.70;6.00;;;;;;;19.04;100.00;97396.73;105377;1281;24740;-82
2022/08/14 07:28:07;;;;;;;7.10;6.40;;;;;;;19.08;100.00;97395.22;105392;1281;24558;-83
2022/08/14 07:30:39;;;;;;;8.30;7.00;;;;;;;19.15;100.00;97389.95;105172;1282;24367;-83
2022/08/14 07:33:20;;;;;;;7.70;6.30;;;;;;;19.21;100.00;97392.69;105401;1281;22543;-83
2022/08/14 07:36:00;;;;;;;7.90;7.00;;;;;;;19.19;100.00;97394.38;105084;1284;25339;-83
2022/08/14 07:38:30;;;;;;;9.40;7.60;;;;;;;19.22;100.00;97397.53;105353;1281;25439;-82
2022/08/14 07:41:06;;;;;;;8.90;7.20;;;;;;;19.28;100.00;97396.83;105180;1284;24255;-82
2022/08/14 07:43:42;;;;;;;8.20;7.10;;;;;;;19.34;100.00;97396.70;105360;1281;25434;-82
2022/08/14 07:46:15;;;;;;;7.30;5.20;;;;;;;19.40;100.00;97396.77;105265;1282;24296;-82
2022/08/14 07:48:56;;;;;;;7.00;5.40;;;;;;;19.41;100.00;97393.29;105313;1282;22655;-82
2022/08/14 07:51:24;;;;;;;6.10;5.20;;;;;;;19.37;100.00;97388.86;105317;1281;22931;-82
2022/08/14 07:53:59;;;;;;;6.40;5.80;;;;;;;19.30;100.00;97392.98;105370;1281;25442;-83
2022/08/14 07:56:27;;;;;;;6.00;4.80;;;;;;;19.31;100.00;97390.95;105278;1281;22707;-83
2022/08/14 07:59:16;;;;;;;5.70;4.80;;;;;;;19.30;100.00;97391.26;105334;1281;24367;-83
2022/08/14 08:01:46;;;;;;;6.80;5.50;;;;;;;19.31;100.00;97396.02;105334;1281;25521;-83
2022/08/14 08:04:25;;;;;;;6.70;6.10;;;;;;;19.25;100.00;97395.09;105281;1281;25591;-83
2022/08/14 08:06:54;;;;;;;6.50;5.80;;;;;;;19.28;100.00;97400.05;105167;1283;25212;-82
2022/08/14 08:09:25;;;;;;;8.80;6.60;;;;;;;19.35;100.00;97399.05;105192;1284;22626;-81
2022/08/14 08:12:04;;;;;;;7.40;6.20;;;;;;;19.38;100.00;97397.45;105343;1281;25352;-82
2022/08/14 08:14:42;;;;;;;6.40;5.80;;;;;;;19.44;100.00;97397.70;105234;1284;25447;-82
2022/08/14 08:17:30;;;;;;;6.50;5.60;;;;;;;19.50;100.00;97399.52;105152;1284;22522;-83
2022/08/14 08:20:09;;;;;;;9.20;8.30;;;;;;;19.56;100.00;97398.17;105324;1281;24424;-81
2022/08/14 08:22:41;;;;;;;9.70;8.80;;;;;;;19.62;100.00;97398.95;105452;1281;23081;-83
2022/08/14 08:25:16;;;;;;;8.40;5.40;;;;;;;19.69;100.00;97400.33;105192;1282;25364;-83
2022/08/14 08:27:58;;;;;;;5.60;4.90;;;;;;;19.79;100.00;97396.77;105320;1281;25485;-82
2022/08/14 08:30:29;;;;;;;4.70;4.20;;;;;;;19.96;100.00;97396.92;105395;1281;22715;-82
2022/08/14 08:33:00;;;;;;;6.10;4.60;;;;;;;20.04;100.00;97395.13;105388;1281;25250;-82
2022/08/14 08:35:36;;;;;;;4.70;4.20;;;;;;;20.11;100.00;97397.01;105335;1281;24291;-83
2022/08/14 08:38:19;;;;;;;4.10;3.70;;;;;;;20.16;100.00;97396.67;105308;1281;24218;-82
2022/08/14 08:41:09;;;;;;;4.80;3.60;;;;;;;20.19;100.00;97396.40;105305;1282;24416;-82
2022/08/14 08:43:39;;;;;;;4.50;3.70;;;;;;;20.19;100.00;97394.13;105381;1281;25195;-82
2022/08/14 08:46:18;;;;;;;4.60;4.10;;;;;;;20.22;100.00;97391.34;105258;1281;22829;-84
2022/08/14 08:48:55;;;;;;;4.80;3.50;;;;;;;20.34;100.00;97390.15;105355;1284;25571;-83
2022/08/14 08:51:31;;;;;;;4.30;3.90;;;;;;;20.48;100.00;97391.94;105466;1281;25247;-83
2022/08/14 08:54:06;;;;;;;4.00;3.60;;;;;;;20.74;100.00;97391.18;105383;1281;24309;-83
2022/08/14 08:56:48;;;;;;;5.60;4.10;;;;;;;20.96;100.00;97385.80;105284;1284;25515;-83
2022/08/14 08:59:30;;;;;;;4.40;3.70;;;;;;;21.14;100.00;97389.23;105404;1281;25416;-83
2022/08/14 09:02:04;;;;;;;3.60;3.30;;;;;;;21.29;100.00;97382.36;105469;1281;24265;-83
2022/08/14 09:04:38;;;;;;;4.10;2.80;;;;;;;21.41;100.00;97386.91;105374;1281;24270;-82
2022/08/14 09:07:26;;;;;;;5.80;3.20;;;;;;;21.65;100.00;97387.05;105242;1284;25575;-82
2022/08/14 09:09:55;;;;;;;3.40;3.10;;;;;;;21.90;100.00;97383.71;105361;1281;23990;-84
2022/08/14 09:12:28;;;;;;;3.40;3.10;;;;;;;22.10;100.00;97383.79;105410;1281;25443;-84
2022/08/14 09:15:08;;;;;;;3.40;3.10;;;;;;;22.27;99.99;97378.14;105385;1281;23230;-84
2022/08/14 09:17:41;;;;;;;4.30;3.70;;;;;;;22.45;99.88;97371.44;105447;1281;22707;-85
2022/08/14 09:20:11;;;;;;;4.20;3.30;;;;;;;22.54;98.62;97371.92;105296;1281;22540;-84
2022/08/14 09:22:40;;;;;;;3.80;3.30;;;;;;;22.53;97.67;97373.25;105243;1284;22688;-85
2022/08/14 09:25:16;;;;;;;3.80;3.30;;;;;;;22.54;98.05;97371.61;105471;1281;25354;-84
2022/08/14 09:28:05;;;;;;;4.10;3.50;;;;;;;22.56;95.17;97364.77;106815;1281;23798;-82
2022/08/14 09:30:42;;;;;;;6.60;3.80;;;;;;;22.44;94.00;97367.27;106616;1282;22574;-82
2022/08/14 09:33:46;;;;;;;7.00;4.80;;;;;;;22.47;95.89;97365.95;106132;1281;25360;-83
2022/08/14 09:36:50;;;;;;;4.60;3.90;;;;;;;22.68;95.73;97365.48;106148;1281;22693;-83
2022/08/14 09:39:50;;;;;;;6.50;4.60;;;;;;;22.72;91.62;97365.89;106643;1281;24002;-83
2022/08/14 09:43:09;;;;;;;5.00;4.40;;;;;;;22.69;93.16;97373.02;106518;1281;22705;-83
2022/08/14 09:46:26;;;;;;;5.30;4.40;;;;;;;22.68;93.52;97371.07;105283;1290;22556;-83
2022/08/14 09:49:56;;;;;;;5.50;4.70;;;;;;;22.85;93.70;97372.71;106061;1290;22642;-82
2022/08/14 09:53:07;;;;;;;4.60;4.10;;;;;;;23.06;92.86;97377.77;103157;1290;24329;-83
2022/08/14 09:55:57;;;;;;;5.80;4.70;;;;;;;23.11;92.33;97375.88;105943;1290;22490;-83
2022/08/14 09:58:37;;;;;;;6.10;4.60;;;;;;;23.09;91.03;97377.60;105801;1291;23442;-84
2022/08/14 10:01:14;;;;;;;5.80;4.10;;;;;;;23.07;91.60;97376.73;105147;1293;22678;-82
2022/08/14 10:03:55;;;;;;;5.10;4.60;;;;;;;23.17;91.94;97374.77;105339;1290;26610;-82
2022/08/14 10:06:28;;;;;;;5.90;4.40;;;;;;;23.26;90.52;97375.45;105477;1290;22724;-82
2022/08/14 10:08:58;;;;;;;6.30;4.00;;;;;;;23.26;88.79;97374.44;105796;1290;22809;-82
2022/08/14 10:11:35;;;;;;;5.10;4.10;;;;;;;23.26;88.71;97373.41;105447;1290;24429;-83
2022/08/14 10:14:17;;;;;;;5.10;4.50;;;;;;;23.27;89.08;97379.23;105094;1290;22707;-83
2022/08/14 10:17:05;;;;;;;5.60;4.80;;;;;;;23.22;87.54;97382.92;105083;1290;24306;-82
2022/08/14 10:19:47;;;;;;;5.20;4.70;;;;;;;23.08;86.62;97382.08;104897;1289;22901;-84
2022/08/14 10:22:27;;;;;;;5.80;4.40;;;;;;;23.00;87.22;97380.13;104806;1285;23989;-84
2022/08/14 10:25:16;;;;;;;5.30;4.20;;;;;;;23.04;87.81;97375.09;105418;1281;22637;-82
2022/08/14 10:27:56;;;;;;;6.40;4.80;;;;;;;23.15;86.24;97377.44;105410;1281;25354;-84
2022/08/14 10:30:35;;;;;;;6.90;4.30;;;;;;;23.22;85.54;97378.45;105485;1281;25329;-82
2022/08/14 10:33:03;;;;;;;6.10;4.90;;;;;;;23.30;84.05;97381.74;105451;1281;22700;-85
2022/08/14 10:35:43;;;;;;;5.80;4.60;;;;;;;23.40;83.68;97382.51;105435;1281;25341;-84
2022/08/14 10:38:26;;;;;;;6.70;4.20;;;;;;;23.48;82.30;97374.56;105396;1281;25314;-83
2022/08/14 10:40:54;;;;;;;6.20;5.50;;;;;;;23.40;83.62;97377.08;105447;1282;22776;-84
2022/08/14 10:43:29;;;;;;;6.20;5.30;;;;;;;23.29;83.06;97378.60;105442;1281;24091;-84
2022/08/14 10:46:00;;;;;;;5.90;5.10;;;;;;;23.24;84.14;97382.77;105500;1281;22829;-84
2022/08/14 10:49:01;;;;;;;7.00;5.50;;;;;;;23.31;83.85;97379.92;105530;1281;24270;-83
2022/08/14 10:51:35;;;;;;;7.40;6.10;;;;;;;23.42;84.39;97377.55;105393;1281;22676;-84
2022/08/14 10:54:09;;;;;;;7.30;6.00;;;;;;;23.62;84.65;97380.10;105436;1281;22708;-87
2022/08/14 10:57:12;;;;;;;7.10;6.30;;;;;;;23.82;83.74;97376.75;105405;1281;23964;-84
2022/08/14 10:59:49;;;;;;;8.00;7.20;;;;;;;23.95;83.32;97375.67;105350;1281;22553;-86
2022/08/14 11:02:31;;;;;;;8.80;7.90;;;;;;;24.06;82.77;97371.77;105384;1281;24266;-84
2022/08/14 11:05:22;;;;;;;8.50;7.60;;;;;;;24.32;82.81;97371.79;105478;1281;25639;-84
2022/08/14 11:07:54;;;;;;;9.80;8.10;;;;;;;24.42;80.78;97369.14;105381;1281;22598;-83
2022/08/14 11:10:38;;;;;;;9.60;8.60;;;;;;;24.52;81.60;97367.59;105368;1281;22621;-82
2022/08/14 11:13:20;;;;;;;9.80;8.50;;;;;;;24.62;81.32;97373.97;105430;1281;22694;-83
2022/08/14 11:15:52;;;;;;;9.40;7.70;;;;;;;24.72;80.51;97375.80;105113;1282;22559;-84
2022/08/14 11:18:20;;;;;;;8.70;7.20;;;;;;;24.77;79.12;97377.73;105228;1282;24302;-83
2022/08/14 11:21:05;;;;;;;9.70;7.10;;;;;;;24.87;79.71;97383.47;105238;1282;22528;-83
2022/08/14 11:23:38;;;;;;;8.00;7.20;;;;;;;24.98;78.42;97378.67;105251;1282;25366;-85
2022/08/14 11:26:13;;;;;;;9.40;7.30;;;;;;;25.08;78.60;97377.22;104999;1282;26645;-83
2022/08/14 11:28:48;;;;;;;7.90;7.10;;;;;;;25.15;78.65;97379.08;105105;1284;22866;-83
2022/08/14 11:31:20;;;;;;;8.60;6.80;;;;;;;25.19;78.12;97373.54;105280;1282;22802;-83
2022/08/14 11:33:54;;;;;;;9.40;6.70;;;;;;;25.16;76.84;97375.62;105234;1282;22816;-83
2022/08/14 11:36:27;;;;;;;11.00;7.30;;;;;;;25.10;76.29;97379.59;105031;1283;22592;-83
2022/08/14 11:39:19;;;;;;;8.50;7.70;;;;;;;24.95;77.02;97372.94;105168;1282;25255;-83
2022/08/14 11:42:06;;;;;;;7.70;6.90;;;;;;;25.00;77.13;97374.55;105173;1282;24413;-83
2022/08/14 11:45:02;;;;;;;7.00;6.30;;;;;;;25.07;77.34;97375.34;105321;1282;24291;-83
2022/08/14 11:47:32;;;;;;;7.50;6.60;;;;;;;25.13;76.24;97379.41;105156;1282;25426;-84
2022/08/14 11:50:13;;;;;;;6.90;6.10;;;;;;;25.11;76.20;97379.89;105148;1284;24252;-83
2022/08/14 11:52:58;;;;;;;7.10;6.40;;;;;;;25.18;75.76;97379.53;105189;1282;24740;-84
2022/08/14 11:55:36;;;;;;;6.80;6.10;;;;;;;25.24;75.42;97376.34;105151;1282;22554;-83
2022/08/14 11:58:08;;;;;;;8.10;6.00;;;;;;;25.40;74.90;97377.35;105210;1282;24264;-83
2022/08/14 12:00:48;;;;;;;6.90;6.20;;;;;;;25.57;74.58;97383.30;105228;1282;24426;-83
2022/08/14 12:03:20;;;;;;;7.50;6.50;;;;;;;25.69;74.49;97383.04;105163;1282;24403;-83
2022/08/14 12:06:14;;;;;;;8.10;6.50;;;;;;;25.77;73.73;97380.71;105179;1282;25471;-82
2022/08/14 12:09:02;;;;;;;6.90;5.70;;;;;;;25.74;72.16;97387.15;105167;1282;25425;-83
2022/08/14 12:11:40;;;;;;;7.70;6.50;;;;;;;25.71;70.98;97378.05;105649;1282;26700;-81
2022/08/14 12:14:16;;;;;;;7.70;5.60;;;;;;;25.70;70.15;97377.27;105243;1281;24439;-82
2022/08/14 12:17:07;;;;;;;8.70;6.30;;;;;;;25.82;71.02;97368.62;105175;1281;22721;-82
2022/08/14 12:19:52;;;;;;;7.90;5.90;;;;;;;26.09;71.73;97364.98;105378;1281;25429;-82
2022/08/14 12:22:39;;;;;;;9.40;6.00;;;;;;;26.32;70.81;97368.29;105486;1281;22550;-82
2022/08/14 12:25:14;;;;;;;9.20;5.90;;;;;;;26.48;70.38;97365.80;105549;1281;25377;-82